41VA weather

Brown's Island Heliport
Richmond, Virginia, United States

Public forecast

Using degrees Fahrenheit for public forecast. Weather courtesy of forecast.io.

METAR (pilot weather report)

Closest report is Richmond International Airport, 6.2 nm (11.4 km) ESE. Retrieved 2019/03/20 17:54 UTC (1 hour ago):

KRIC 201754Z 11009KT 10SM SCT065 BKN230 BKN300 13/M04 A3028 RMK AO2 SLP261 T01331044 10139 20000 58030

TAF (pilot weather forecast)

Closest forecast is Richmond International Airport, 6.2 nm (11.4 km) ESE. Retrieved 2019/03/20 18:42 UTC (16 minutes ago):

TAF KRIC 201739Z 2018/2118 09008KT P6SM BKN060 FM210000 08005KT 6SM -SHRA OVC025 FM210300 06006KT 4SM RA OVC007 FM210900 07005KT 2SM RA OVC004 FM211300 09007KT 5SM -SHRA OVC007 FM211600 15005KT P6SM OVC015